Time;durP1;ratioP1;P1;durP2;ratioP2;P2;SDS_P1;SDS_P2;PMS_P1;PMS_P2;Temp;Humidity;BMP_temperature;BMP_pressure;BME280_temperature;BME280_humidity;BME280_pressure;Samples;Min_cycle;Max_cycle;Signal;HPM_P1;HPM_P2
2023/12/10 00:00:57;;;;;;;21.83;3.50;;;10.50;76.10;;;;;;5093165;28;20315;-61
2023/12/10 00:03:23;;;;;;;19.60;2.92;;;10.40;82.90;;;;;;5077288;28;20032;-62
2023/12/10 00:05:49;;;;;;;17.50;2.65;;;10.50;79.70;;;;;;5076998;28;20036;-63
2023/12/10 00:08:14;;;;;;;23.58;4.10;;;10.50;73.60;;;;;;5076946;28;20384;-64
2023/12/10 00:10:40;;;;;;;23.45;4.00;;;10.60;73.20;;;;;;5076373;28;20281;-64
2023/12/10 00:13:06;;;;;;;19.65;2.97;;;10.60;73.80;;;;;;5092962;28;20142;-63
2023/12/10 00:15:32;;;;;;;17.15;3.17;;;10.70;68.80;;;;;;5076091;28;20108;-63
2023/12/10 00:17:58;;;;;;;23.20;3.03;;;10.60;60.20;;;;;;5076012;28;20143;-64
2023/12/10 00:20:25;;;;;;;19.17;2.72;;;10.60;67.70;;;;;;5076046;28;20033;-62
2023/12/10 00:22:51;;;;;;;18.92;3.05;;;10.60;73.30;;;;;;5092775;28;20082;-63
2023/12/10 00:25:16;;;;;;;16.65;3.00;;;10.70;68.60;;;;;;5076161;28;20040;-60
2023/12/10 00:27:43;;;;;;;17.25;2.83;;;10.60;64.20;;;;;;5076659;28;20028;-63
2023/12/10 00:30:09;;;;;;;18.30;3.35;;;10.70;62.80;;;;;;5092782;28;20128;-63
2023/12/10 00:32:35;;;;;;;21.58;3.60;;;10.70;63.70;;;;;;5076819;28;20097;-59
2023/12/10 00:35:01;;;;;;;19.85;3.53;;;10.70;60.00;;;;;;5076721;28;20032;-62
2023/12/10 00:37:27;;;;;;;15.60;2.83;;;10.70;56.70;;;;;;5076700;28;20088;-60
2023/12/10 00:39:52;;;;;;;17.45;3.08;;;10.60;51.50;;;;;;5059125;28;20083;-61
2023/12/10 00:42:18;;;;;;;16.40;2.45;;;10.70;45.30;;;;;;5075919;28;20461;-63
2023/12/10 00:44:44;;;;;;;15.55;3.25;;;10.70;47.50;;;;;;5059018;28;20040;-64
2023/12/10 00:47:11;;;;;;;15.73;2.35;;;10.70;42.10;;;;;;5075762;28;20407;-60
2023/12/10 00:49:36;;;;;;;15.02;2.75;;;10.60;41.20;;;;;;5076197;28;20298;-68
2023/12/10 00:52:03;;;;;;;16.98;2.65;;;10.70;45.50;;;;;;5076642;28;20037;-64
2023/12/10 00:54:30;;;;;;;17.83;2.38;;;10.70;44.00;;;;;;5075874;28;20051;-66
2023/12/10 00:56:56;;;;;;;12.38;2.60;;;10.70;25.20;;;;;;5076528;28;20063;-62
2023/12/10 00:59:21;;;;;;;14.77;3.50;;;10.70;24.20;;;;;;5076511;28;20109;-64
2023/12/10 01:01:47;;;;;;;13.65;2.50;;;10.70;25.70;;;;;;5076538;28;20028;-65
2023/12/10 01:04:14;;;;;;;16.98;3.10;;;10.70;22.30;;;;;;5076429;28;20036;-62
2023/12/10 01:06:40;;;;;;;16.50;3.22;;;10.70;19.60;;;;;;5092385;28;20347;-63
2023/12/10 01:09:06;;;;;;;15.18;2.78;;;10.80;21.40;;;;;;5076411;28;20171;-64
2023/12/10 01:11:31;;;;;;;16.52;2.65;;;10.70;22.60;;;;;;5075668;28;20090;-63
2023/12/10 01:13:57;;;;;;;16.90;2.88;;;10.80;13.20;;;;;;5059001;28;20427;-61
2023/12/10 01:16:23;;;;;;;16.67;2.80;;;10.90;11.20;;;;;;5076556;28;20308;-65
2023/12/10 01:18:49;;;;;;;18.65;2.38;;;10.80;5.70;;;;;;5058985;28;20021;-64
2023/12/10 01:21:15;;;;;;;18.67;3.40;;;10.80;16.20;;;;;;5075664;28;20037;-66
2023/12/10 01:23:40;;;;;;;12.50;2.65;;;10.70;14.30;;;;;;5075374;28;20029;-63
2023/12/10 01:26:07;;;;;;;18.67;3.42;;;10.70;15.00;;;;;;5092364;28;20029;-61
2023/12/10 01:28:33;;;;;;;10.02;2.20;;;10.80;1.00;;;;;;5075337;28;20062;-62
2023/12/10 01:31:00;;;;;;;12.77;3.10;;;10.80;1.40;;;;;;5058655;28;20403;-65
2023/12/10 01:33:26;;;;;;;20.20;3.28;;;10.80;7.10;;;;;;5076173;28;20028;-66
2023/12/10 01:35:52;;;;;;;18.80;3.05;;;10.90;1.00;;;;;;5092199;28;20032;-63
2023/12/10 01:38:17;;;;;;;12.35;2.63;;;10.80;1.00;;;;;;5075275;28;20041;-63
2023/12/10 01:40:43;;;;;;;16.45;3.13;;;10.70;1.00;;;;;;5092417;28;20328;-63
2023/12/10 01:43:11;;;;;;;15.00;2.70;;;10.70;1.00;;;;;;5075956;28;20036;-61
2023/12/10 01:45:37;;;;;;;15.95;2.60;;;10.70;1.00;;;;;;5075624;28;20044;-64
2023/12/10 01:48:05;;;;;;;17.63;2.88;;;10.70;6.60;;;;;;5075185;28;20208;-61
2023/12/10 01:50:34;;;;;;;16.52;2.67;;;10.70;5.60;;;;;;5075403;28;20068;-64
2023/12/10 01:53:00;;;;;;;15.02;2.60;;;10.70;4.40;;;;;;5075961;28;20037;-63
2023/12/10 01:55:26;;;;;;;15.82;2.78;;;10.70;1.60;;;;;;5075960;28;20040;-62
2023/12/10 01:57:52;;;;;;;13.82;2.95;;;10.80;1.00;;;;;;5076008;28;20062;-64
2023/12/10 02:00:21;;;;;;;15.90;2.53;;;10.80;1.00;;;;;;5076300;28;20033;-65
2023/12/10 02:02:47;;;;;;;13.95;2.78;;;10.80;1.00;;;;;;5095237;28;20040;-62
2023/12/10 02:05:13;;;;;;;15.63;2.58;;;10.80;1.00;;;;;;5079490;28;20028;-61
2023/12/10 02:07:44;;;;;;;19.00;2.97;;;10.80;1.00;;;;;;5079362;28;20035;-61
2023/12/10 02:10:10;;;;;;;13.68;2.42;;;10.80;1.00;;;;;;5079332;28;20299;-62
2023/12/10 02:12:36;;;;;;;18.15;3.35;;;10.90;1.00;;;;;;5079325;28;20043;-62
2023/12/10 02:15:21;;;;;;;16.25;3.20;;;10.90;1.00;;;;;;5078364;28;20323;-59
2023/12/10 02:17:49;;;;;;;17.92;2.75;;;10.70;1.00;;;;;;5079276;28;20036;-61
2023/12/10 02:20:16;;;;;;;16.17;3.17;;;10.80;1.00;;;;;;5079203;28;20024;-65
2023/12/10 02:22:52;;;;;;;15.82;2.35;;;10.80;1.00;;;;;;5079309;28;20107;-64
2023/12/10 02:25:39;;;;;;;15.75;3.25;;;10.80;1.00;;;;;;5079174;28;20036;-63
2023/12/10 02:28:08;;;;;;;18.30;2.28;;;10.90;1.00;;;;;;5078226;28;20045;-63
2023/12/10 02:30:35;;;;;;;14.68;2.13;;;10.90;1.00;;;;;;5079043;28;20331;-64
2023/12/10 02:33:01;;;;;;;10.93;2.20;;;10.80;1.00;;;;;;5078073;28;20315;-62
2023/12/10 02:35:27;;;;;;;19.70;2.95;;;10.80;1.00;;;;;;5061345;28;20033;-62
2023/12/10 02:37:53;;;;;;;15.57;3.10;;;10.90;1.00;;;;;;5078153;28;20111;-65
2023/12/10 02:40:19;;;;;;;14.35;2.55;;;10.90;1.00;;;;;;5078243;28;20040;-64
2023/12/10 02:42:46;;;;;;;17.00;2.67;;;10.90;1.00;;;;;;5078839;28;20119;-62
2023/12/10 02:45:12;;;;;;;15.73;2.75;;;10.90;1.00;;;;;;5078030;28;20051;-64
2023/12/10 02:47:38;;;;;;;12.98;2.50;;;10.80;1.00;;;;;;5078731;28;20028;-61
2023/12/10 02:50:05;;;;;;;11.65;2.45;;;10.80;1.00;;;;;;5078681;28;20028;-64
2023/12/10 02:52:32;;;;;;;11.77;2.30;;;10.70;1.00;;;;;;5078596;28;20038;-62
2023/12/10 02:54:58;;;;;;;12.05;2.15;;;10.70;1.00;;;;;;5078442;28;20399;-67
2023/12/10 02:57:24;;;;;;;13.90;2.30;;;10.70;1.00;;;;;;5078571;28;20036;-66
2023/12/10 02:59:49;;;;;;;13.23;2.30;;;10.70;1.00;;;;;;5077757;28;20024;-63
2023/12/10 03:02:15;;;;;;;15.20;2.25;;;10.80;1.00;;;;;;5078297;28;20025;-67
2023/12/10 03:04:41;;;;;;;17.35;2.80;;;10.80;1.00;;;;;;5077533;28;20166;-66
2023/12/10 03:07:07;;;;;;;16.50;2.53;;;10.80;1.00;;;;;;5094316;28;20033;-64
2023/12/10 03:09:33;;;;;;;17.30;2.63;;;10.80;1.00;;;;;;5077393;28;20063;-63
2023/12/10 03:11:58;;;;;;;11.27;2.10;;;10.80;1.00;;;;;;5060383;28;20067;-64
2023/12/10 03:14:24;;;;;;;18.70;2.60;;;10.80;1.00;;;;;;5077322;28;20408;-63
2023/12/10 03:16:50;;;;;;;16.13;2.00;;;10.80;1.00;;;;;;5078169;28;20380;-62
2023/12/10 03:19:16;;;;;;;13.32;2.40;;;10.80;1.00;;;;;;5077132;28;20128;-65
2023/12/10 03:21:42;;;;;;;10.38;1.92;;;10.90;1.00;;;;;;5094096;28;20039;-65
2023/12/10 03:24:07;;;;;;;12.80;2.53;;;10.90;1.00;;;;;;5077869;28;20039;-64
2023/12/10 03:26:33;;;;;;;15.43;3.05;;;10.90;1.00;;;;;;5077849;28;20025;-61
2023/12/10 03:28:59;;;;;;;17.42;2.83;;;10.90;1.00;;;;;;5077634;28;20084;-60
2023/12/10 03:31:25;;;;;;;17.25;2.67;;;10.80;1.00;;;;;;5076991;28;20371;-62
2023/12/10 03:33:51;;;;;;;14.23;2.72;;;10.80;1.00;;;;;;5093779;28;20358;-62
2023/12/10 03:36:18;;;;;;;14.30;2.88;;;10.80;1.00;;;;;;5076938;28;20040;-64
2023/12/10 03:38:44;;;;;;;20.70;3.55;;;10.90;1.00;;;;;;5077648;28;20044;-64
2023/12/10 03:41:09;;;;;;;23.83;4.28;;;10.90;1.00;;;;;;5077650;28;20020;-63
2023/12/10 03:43:35;;;;;;;19.17;3.10;;;10.80;1.00;;;;;;5076717;28;20354;-64
2023/12/10 03:46:01;;;;;;;14.55;2.55;;;10.80;1.00;;;;;;5076636;28;20112;-61
2023/12/10 03:48:27;;;;;;;12.18;2.25;;;10.80;1.00;;;;;;5076565;28;20300;-63
2023/12/10 03:50:53;;;;;;;16.63;2.75;;;10.80;1.00;;;;;;5077511;28;20089;-62
2023/12/10 03:53:18;;;;;;;15.95;2.50;;;10.90;1.00;;;;;;5093355;28;20033;-60
2023/12/10 03:55:44;;;;;;;15.20;2.95;;;10.80;1.00;;;;;;5077257;28;20043;-62
2023/12/10 03:58:10;;;;;;;19.83;2.97;;;10.80;1.00;;;;;;5076540;28;20025;-64
2023/12/10 04:00:36;;;;;;;19.73;3.17;;;10.80;1.00;;;;;;5077331;28;20021;-62
2023/12/10 04:03:02;;;;;;;15.27;2.35;;;10.80;1.00;;;;;;5093351;28;20119;-61
2023/12/10 04:05:27;;;;;;;17.73;2.50;;;10.80;1.00;;;;;;5076596;28;20293;-65
2023/12/10 04:07:53;;;;;;;17.15;3.20;;;10.80;1.00;;;;;;5093351;28;20045;-65
2023/12/10 04:10:19;;;;;;;14.15;2.35;;;10.80;1.00;;;;;;5093188;28;20146;-62
2023/12/10 04:12:45;;;;;;;15.38;2.40;;;10.80;1.00;;;;;;5077205;28;20051;-63
2023/12/10 04:15:11;;;;;;;18.13;2.92;;;10.70;1.00;;;;;;5077001;28;20107;-62
2023/12/10 04:17:36;;;;;;;18.63;2.63;;;10.60;1.00;;;;;;5077162;28;20039;-65
2023/12/10 04:20:03;;;;;;;16.33;2.55;;;10.60;1.00;;;;;;5076986;28;20047;-59
2023/12/10 04:22:29;;;;;;;16.58;2.45;;;10.70;1.00;;;;;;5076766;28;20036;-64
2023/12/10 04:24:55;;;;;;;16.45;2.08;;;10.70;1.00;;;;;;5076405;28;20310;-64
2023/12/10 04:27:23;;;;;;;15.80;2.78;;;10.70;1.00;;;;;;5076047;28;20047;-66
2023/12/10 04:29:49;;;;;;;13.07;2.50;;;10.70;1.00;;;;;;5076702;28;20049;-65
2023/12/10 04:32:15;;;;;;;11.77;2.53;;;10.70;1.00;;;;;;5076711;28;20400;-64
2023/12/10 04:34:41;;;;;;;15.13;2.10;;;10.80;1.00;;;;;;5075927;28;20036;-65
2023/12/10 04:37:06;;;;;;;16.60;2.15;;;10.70;1.00;;;;;;5059252;28;20407;-63
2023/12/10 04:39:32;;;;;;;17.52;2.72;;;10.80;1.00;;;;;;5076691;28;20032;-64
2023/12/10 04:41:58;;;;;;;20.15;3.08;;;10.90;1.00;;;;;;5059181;28;20045;-67
2023/12/10 04:44:24;;;;;;;16.08;2.60;;;10.80;1.00;;;;;;5092881;28;20376;-65
2023/12/10 04:46:50;;;;;;;19.48;2.70;;;10.80;1.00;;;;;;5076706;28;20028;-62
2023/12/10 04:49:15;;;;;;;19.90;2.45;;;10.80;1.00;;;;;;5076907;28;20021;-61
2023/12/10 04:51:41;;;;;;;26.98;2.35;;;10.90;1.00;;;;;;5076625;28;20021;-62
2023/12/10 04:54:07;;;;;;;14.95;2.85;;;10.80;1.00;;;;;;5076596;28;20039;-65
2023/12/10 04:56:33;;;;;;;13.68;2.55;;;10.80;1.00;;;;;;5076362;28;20057;-61
2023/12/10 04:58:59;;;;;;;13.55;2.67;;;10.70;1.00;;;;;;5076358;28;20025;-64
2023/12/10 05:01:25;;;;;;;21.45;3.35;;;10.70;1.00;;;;;;5092449;28;20112;-68
2023/12/10 05:03:51;;;;;;;13.88;2.85;;;10.60;1.00;;;;;;5076570;28;20035;-65
2023/12/10 05:06:17;;;;;;;25.55;3.58;;;10.50;1.00;;;;;;5076484;28;20097;-62
2023/12/10 05:08:43;;;;;;;15.60;2.38;;;10.40;1.00;;;;;;5059110;28;20047;-63
2023/12/10 05:11:09;;;;;;;13.02;2.55;;;10.40;1.00;;;;;;5075802;28;20037;-66
2023/12/10 05:13:35;;;;;;;21.25;2.85;;;10.30;1.00;;;;;;5076270;28;20047;-65
2023/12/10 05:16:01;;;;;;;17.65;2.47;;;10.40;1.00;;;;;;5058810;28;20059;-66
2023/12/10 05:18:28;;;;;;;18.27;2.72;;;10.40;1.00;;;;;;5075591;28;20300;-62
2023/12/10 05:20:53;;;;;;;17.63;2.85;;;10.40;1.00;;;;;;5075590;28;20028;-66
2023/12/10 05:23:20;;;;;;;12.98;2.80;;;10.40;1.00;;;;;;5092286;28;20085;-61
2023/12/10 05:25:45;;;;;;;15.93;3.03;;;10.40;1.00;;;;;;5076279;28;20044;-63
2023/12/10 05:28:11;;;;;;;21.92;3.17;;;10.40;1.00;;;;;;5075958;28;20053;-61
2023/12/10 05:30:37;;;;;;;17.42;2.53;;;10.30;1.00;;;;;;5076200;28;20402;-61
2023/12/10 05:33:03;;;;;;;17.85;3.00;;;10.20;1.00;;;;;;5076227;28;20418;-63
2023/12/10 05:35:29;;;;;;;20.40;3.03;;;10.20;1.00;;;;;;5094628;28;20041;-68
2023/12/10 05:37:55;;;;;;;16.98;2.67;;;10.20;1.00;;;;;;5079089;28;20273;-64
2023/12/10 05:40:20;;;;;;;14.02;2.63;;;10.30;1.00;;;;;;5079751;28;20024;-63
2023/12/10 05:42:46;;;;;;;14.15;2.40;;;10.20;1.00;;;;;;5079093;28;20032;-63
2023/12/10 05:45:12;;;;;;;21.55;2.85;;;10.20;1.00;;;;;;5079876;28;20400;-63
2023/12/10 05:47:38;;;;;;;26.77;2.90;;;10.20;1.00;;;;;;5078837;28;20036;-63
2023/12/10 05:50:04;;;;;;;16.73;4.05;;;10.20;1.00;;;;;;5095798;28;20439;-65
2023/12/10 05:52:30;;;;;;;15.63;2.50;;;10.20;1.00;;;;;;5079203;28;20344;-66
2023/12/10 05:54:56;;;;;;;18.27;2.95;;;10.30;1.00;;;;;;5079521;28;20131;-63
2023/12/10 05:57:22;;;;;;;20.48;3.35;;;10.20;1.00;;;;;;5079475;28;20335;-66
2023/12/10 05:59:47;;;;;;;18.00;2.65;;;10.20;1.00;;;;;;5078804;28;20107;-65
2023/12/10 06:02:13;;;;;;;21.35;3.28;;;10.30;1.00;;;;;;5078729;28;20037;-66
2023/12/10 06:04:39;;;;;;;24.02;3.35;;;10.30;1.00;;;;;;5095565;28;20407;-67
2023/12/10 06:07:05;;;;;;;18.00;3.05;;;10.40;1.00;;;;;;5061910;28;20316;-64
2023/12/10 06:09:31;;;;;;;14.20;2.92;;;10.20;1.00;;;;;;5078488;28;20029;-63
2023/12/10 06:11:57;;;;;;;18.65;2.78;;;10.10;4.80;;;;;;5095459;28;20024;-67
2023/12/10 06:14:22;;;;;;;23.45;3.20;;;10.10;13.60;;;;;;5079210;28;20414;-69
2023/12/10 06:16:48;;;;;;;21.95;3.88;;;10.00;21.40;;;;;;5079045;28;20033;-64
2023/12/10 06:19:14;;;;;;;17.33;2.55;;;10.00;22.90;;;;;;5078459;28;20037;-66
2023/12/10 06:21:40;;;;;;;24.65;3.30;;;9.90;30.20;;;;;;5078421;28;20028;-63
2023/12/10 06:24:06;;;;;;;22.15;3.08;;;10.00;29.50;;;;;;5079007;28;20450;-65
2023/12/10 06:26:32;;;;;;;14.32;3.05;;;9.90;30.50;;;;;;5078333;28;20032;-67
2023/12/10 06:28:58;;;;;;;18.65;2.92;;;9.90;36.70;;;;;;5094762;28;20052;-62
2023/12/10 06:31:24;;;;;;;19.50;2.75;;;9.90;28.50;;;;;;5078999;28;20093;-65
2023/12/10 06:33:50;;;;;;;16.13;2.45;;;9.90;27.50;;;;;;5095101;28;20115;-66
2023/12/10 06:36:16;;;;;;;22.63;3.65;;;9.80;35.70;;;;;;5094971;28;20029;-66
2023/12/10 06:38:41;;;;;;;16.75;3.15;;;9.80;41.90;;;;;;5077982;28;20043;-70
2023/12/10 06:41:07;;;;;;;20.67;3.38;;;9.80;45.10;;;;;;5077989;28;20036;-66
2023/12/10 06:43:33;;;;;;;20.90;2.78;;;9.70;51.80;;;;;;5078656;28;20029;-68
2023/12/10 06:45:59;;;;;;;20.85;3.17;;;9.80;47.20;;;;;;5077994;28;20105;-66
2023/12/10 06:48:25;;;;;;;23.40;3.45;;;9.80;54.10;;;;;;5077779;28;20068;-67
2023/12/10 06:50:52;;;;;;;17.60;3.05;;;9.80;49.70;;;;;;5078520;28;20342;-65
2023/12/10 06:53:17;;;;;;;19.05;2.78;;;9.80;47.40;;;;;;5078462;28;20403;-66
2023/12/10 06:55:44;;;;;;;21.75;3.38;;;9.80;50.40;;;;;;5078486;28;20173;-66
2023/12/10 06:58:10;;;;;;;22.73;3.25;;;9.70;56.90;;;;;;5077695;28;20126;-68
2023/12/10 07:00:36;;;;;;;17.60;3.08;;;9.70;67.20;;;;;;5078382;28;20426;-65
2023/12/10 07:03:02;;;;;;;22.10;3.65;;;9.60;71.90;;;;;;5078302;28;20025;-68
2023/12/10 07:05:28;;;;;;;22.13;3.33;;;9.70;70.00;;;;;;5077624;28;20322;-65
2023/12/10 07:07:54;;;;;;;20.58;3.22;;;9.60;74.70;;;;;;5077428;28;20036;-70
2023/12/10 07:10:19;;;;;;;25.67;3.55;;;9.60;76.10;;;;;;5094256;28;20036;-66
2023/12/10 07:12:46;;;;;;;19.40;2.88;;;9.70;71.50;;;;;;5078322;28;20072;-68
2023/12/10 07:15:12;;;;;;;21.85;3.30;;;9.70;62.40;;;;;;5060434;28;20059;-69
2023/12/10 07:17:38;;;;;;;20.10;3.67;;;9.80;60.30;;;;;;5077324;28;20032;-68
2023/12/10 07:20:04;;;;;;;20.95;3.33;;;9.80;59.70;;;;;;5094126;28;20076;-68
2023/12/10 07:22:30;;;;;;;19.10;3.45;;;9.80;60.20;;;;;;5078207;28;20036;-65
2023/12/10 07:24:57;;;;;;;12.20;2.42;;;9.80;58.40;;;;;;5077825;28;20044;-68
2023/12/10 07:27:22;;;;;;;16.52;2.83;;;9.70;70.50;;;;;;5076939;28;20046;-66
2023/12/10 07:29:48;;;;;;;14.63;2.28;;;9.50;81.30;;;;;;5077167;28;20131;-68
2023/12/10 07:32:14;;;;;;;21.30;3.22;;;9.50;90.00;;;;;;5076527;28;20059;-70
2023/12/10 07:34:40;;;;;;;17.88;2.63;;;9.50;85.70;;;;;;5093441;28;20308;-64
2023/12/10 07:37:06;;;;;;;14.52;2.83;;;9.50;86.90;;;;;;5077500;28;20169;-67
2023/12/10 07:39:31;;;;;;;20.00;3.63;;;9.50;91.50;;;;;;5077388;28;20035;-68
2023/12/10 07:41:58;;;;;;;19.40;3.25;;;9.50;91.90;;;;;;5093535;28;20492;-68
2023/12/10 07:44:24;;;;;;;13.10;2.17;;;9.60;90.60;;;;;;5077345;28;20050;-64
2023/12/10 07:46:50;;;;;;;15.63;3.10;;;9.50;88.30;;;;;;5093450;28;20036;-70
2023/12/10 07:49:17;;;;;;;19.23;3.30;;;9.40;96.20;;;;;;5077423;28;20037;-61
2023/12/10 07:51:42;;;;;;;23.98;2.63;;;9.30;99.90;;;;;;5077324;28;20043;-63
2023/12/10 07:54:09;;;;;;;16.42;2.65;;;9.20;99.90;;;;;;5076655;28;20029;-64
2023/12/10 07:56:35;;;;;;;24.25;3.60;;;9.30;99.90;;;;;;5077233;28;20066;-63
2023/12/10 07:59:01;;;;;;;13.40;2.70;;;9.40;99.90;;;;;;5076362;28;20082;-63
2023/12/10 08:01:26;;;;;;;20.02;2.53;;;9.40;99.90;;;;;;5076995;28;20024;-65
2023/12/10 08:03:52;;;;;;;22.17;2.53;;;9.40;99.90;;;;;;5076993;28;20412;-63
2023/12/10 08:06:19;;;;;;;17.60;3.00;;;9.40;99.90;;;;;;5075675;28;20044;-62
2023/12/10 08:08:45;;;;;;;17.55;2.70;;;9.50;99.90;;;;;;5076902;28;20029;-62
2023/12/10 08:11:11;;;;;;;19.77;2.58;;;9.50;99.90;;;;;;5076966;28;20033;-65
2023/12/10 08:13:37;;;;;;;15.05;2.45;;;9.50;99.90;;;;;;5076932;28;20032;-64
2023/12/10 08:16:04;;;;;;;16.02;3.50;;;9.60;99.90;;;;;;5092991;28;20178;-62
2023/12/10 08:18:31;;;;;;;20.42;2.50;;;9.50;99.90;;;;;;5092943;28;20119;-63
2023/12/10 08:20:56;;;;;;;21.52;2.78;;;9.40;99.90;;;;;;5076209;28;20036;-61
2023/12/10 08:23:22;;;;;;;21.52;2.17;;;9.50;99.90;;;;;;5076872;28;20040;-63
2023/12/10 08:25:48;;;;;;;20.27;2.40;;;9.50;99.90;;;;;;5076961;28;20040;-65
2023/12/10 08:28:14;;;;;;;19.77;2.80;;;9.50;99.90;;;;;;5076698;28;20045;-65
2023/12/10 08:30:40;;;;;;;24.27;3.33;;;9.70;99.90;;;;;;5076830;28;20422;-64
2023/12/10 08:33:06;;;;;;;21.50;3.13;;;9.70;99.90;;;;;;5092708;28;20037;-64
2023/12/10 08:35:32;;;;;;;19.90;2.38;;;9.60;99.90;;;;;;5076959;28;20275;-67
2023/12/10 08:37:58;;;;;;;18.65;2.55;;;9.70;99.90;;;;;;5076470;28;20107;-65
2023/12/10 08:40:24;;;;;;;16.40;2.50;;;9.80;99.90;;;;;;5076761;28;20024;-66
2023/12/10 08:42:49;;;;;;;18.70;2.65;;;9.90;99.90;;;;;;5076813;28;20028;-68
2023/12/10 08:45:15;;;;;;;19.40;2.55;;;9.90;99.90;;;;;;5092924;28;20040;-64
2023/12/10 08:47:41;;;;;;;16.17;2.58;;;9.90;99.90;;;;;;5092718;28;20123;-66
2023/12/10 08:50:07;;;;;;;16.52;2.53;;;9.90;99.90;;;;;;5076644;28;20043;-66
2023/12/10 08:52:33;;;;;;;19.40;3.00;;;9.90;99.90;;;;;;5076492;28;20052;-62
2023/12/10 08:54:59;;;;;;;19.50;3.17;;;10.00;99.90;;;;;;5075740;28;20075;-60
2023/12/10 08:57:25;;;;;;;14.48;2.75;;;10.00;99.90;;;;;;5076390;28;20021;-67
2023/12/10 08:59:51;;;;;;;15.23;2.33;;;10.00;99.90;;;;;;5075888;28;20081;-64
2023/12/10 09:02:18;;;;;;;14.20;2.65;;;10.00;99.90;;;;;;5092495;28;20052;-63
2023/12/10 09:04:44;;;;;;;23.90;3.58;;;10.10;99.90;;;;;;5076526;28;20033;-63
2023/12/10 09:07:11;;;;;;;21.40;2.88;;;10.30;99.90;;;;;;5075855;28;20089;-64
2023/12/10 09:09:36;;;;;;;16.98;3.40;;;10.30;97.20;;;;;;5093671;28;20032;-61
2023/12/10 09:12:03;;;;;;;21.73;3.20;;;10.20;99.90;;;;;;5080619;28;20093;-63
2023/12/10 09:14:28;;;;;;;16.05;2.55;;;10.30;99.90;;;;;;5096893;28;20032;-59
2023/12/10 09:16:55;;;;;;;20.30;2.92;;;10.20;99.90;;;;;;5080450;28;20119;-63
2023/12/10 09:19:21;;;;;;;19.38;2.97;;;10.20;99.90;;;;;;5080675;28;20265;-65
2023/12/10 09:21:47;;;;;;;22.73;3.03;;;10.30;99.90;;;;;;5080424;28;20021;-64
2023/12/10 09:24:13;;;;;;;18.02;2.67;;;10.30;99.90;;;;;;5080267;28;20031;-64
2023/12/10 09:26:39;;;;;;;21.10;3.08;;;10.40;98.30;;;;;;5080280;28;20422;-63
2023/12/10 09:29:05;;;;;;;17.67;2.95;;;10.40;99.60;;;;;;5080085;28;20052;-63
2023/12/10 09:31:31;;;;;;;18.30;3.05;;;10.30;99.90;;;;;;5080205;28;20093;-64
2023/12/10 09:33:57;;;;;;;20.27;3.30;;;10.40;99.90;;;;;;5096294;28;20404;-65
2023/12/10 09:36:23;;;;;;;20.15;3.08;;;10.50;99.80;;;;;;5096451;28;20055;-64
2023/12/10 09:38:48;;;;;;;14.65;2.78;;;10.50;94.70;;;;;;5080082;28;20324;-65
2023/12/10 09:41:14;;;;;;;18.52;2.92;;;10.50;96.70;;;;;;5079911;28;20028;-68
2023/12/10 09:43:40;;;;;;;17.95;2.78;;;10.70;92.40;;;;;;5079400;28;20116;-69
2023/12/10 09:46:08;;;;;;;20.00;3.60;;;11.00;71.60;;;;;;5079923;28;20182;-64
2023/12/10 09:48:34;;;;;;;18.38;2.70;;;11.10;55.20;;;;;;5080041;28;20446;-64
2023/12/10 09:51:00;;;;;;;18.77;3.30;;;11.20;57.10;;;;;;5079777;28;20281;-61
2023/12/10 09:53:28;;;;;;;18.02;3.30;;;11.20;53.10;;;;;;5079701;28;20097;-62
2023/12/10 09:55:54;;;;;;;20.27;3.65;;;11.30;53.10;;;;;;5079552;28;20035;-62
2023/12/10 09:58:19;;;;;;;26.42;4.28;;;11.50;27.20;;;;;;5079565;28;20036;-63
2023/12/10 10:00:45;;;;;;;17.65;3.63;;;11.30;45.20;;;;;;5078950;28;20036;-64
2023/12/10 10:03:11;;;;;;;15.88;3.10;;;11.40;50.00;;;;;;5079530;28;20039;-59
2023/12/10 10:05:37;;;;;;;16.25;3.13;;;11.70;24.80;;;;;;5079076;28;20036;-62
2023/12/10 10:08:03;;;;;;;20.10;3.58;;;11.50;38.50;;;;;;5079258;28;20067;-67
2023/12/10 10:10:29;;;;;;;19.23;3.00;;;11.60;38.00;;;;;;5079429;28;20028;-67
2023/12/10 10:12:56;;;;;;;21.00;3.03;;;11.80;18.50;;;;;;5079156;28;20128;-63
2023/12/10 10:15:31;;;;;;;18.17;3.75;;;11.70;21.30;;;;;;5079190;28;20035;-64
2023/12/10 10:17:58;;;;;;;18.35;3.17;;;11.70;19.20;;;;;;5079265;28;20099;-61
2023/12/10 10:20:25;;;;;;;24.55;3.75;;;11.70;23.40;;;;;;5079115;28;20033;-61
2023/12/10 10:22:52;;;;;;;75.55;18.13;;;11.50;34.70;;;;;;5078259;28;20344;-64
2023/12/10 10:25:19;;;;;;;49.88;11.38;;;11.60;63.70;;;;;;5078388;28;20032;-66
2023/12/10 10:27:45;;;;;;;23.05;3.90;;;12.10;42.50;;;;;;5078079;28;20024;-64
2023/12/10 10:30:11;;;;;;;25.23;4.93;;;12.20;17.30;;;;;;5079001;28;20036;-61
2023/12/10 10:32:39;;;;;;;24.58;4.75;;;12.10;15.80;;;;;;5079130;28;20032;-63
2023/12/10 10:35:06;;;;;;;25.88;3.95;;;12.20;17.20;;;;;;5078694;28;20081;-63
2023/12/10 10:37:32;;;;;;;28.92;4.10;;;12.30;18.80;;;;;;5078957;28;20029;-64
2023/12/10 10:39:58;;;;;;;22.17;4.00;;;12.20;24.30;;;;;;5078859;28;20031;-61
2023/12/10 10:42:24;;;;;;;27.63;4.65;;;12.00;35.20;;;;;;5078997;28;20039;-62
2023/12/10 10:44:50;;;;;;;28.67;4.55;;;11.80;56.30;;;;;;5078651;28;20024;-61
2023/12/10 10:47:19;;;;;;;24.77;4.40;;;11.90;63.20;;;;;;5078539;28;20028;-62
2023/12/10 10:49:53;;;;;;;25.38;3.53;;;11.90;62.60;;;;;;5078660;28;20052;-62
2023/12/10 10:52:23;;;;;;;25.05;4.35;;;11.90;66.60;;;;;;5078050;28;20399;-61
2023/12/10 10:54:54;;;;;;;26.77;4.68;;;11.60;83.90;;;;;;5078478;28;20025;-61
2023/12/10 10:57:35;;;;;;;25.95;3.97;;;11.60;90.00;;;;;;5093960;28;20028;-61
2023/12/10 11:00:22;;;;;;;34.75;4.68;;;11.50;92.10;;;;;;5078591;28;20391;-61
2023/12/10 11:02:53;;;;;;;33.35;4.38;;;11.50;95.90;;;;;;5078282;28;20405;-63
2023/12/10 11:05:35;;;;;;;31.58;4.55;;;11.40;97.40;;;;;;5078291;28;20280;-61
2023/12/10 11:08:05;;;;;;;58.50;12.17;;;11.30;99.90;;;;;;5094418;28;20306;-61
2023/12/10 11:10:34;;;;;;;30.40;5.25;;;11.30;99.90;;;;;;5078152;28;20305;-61
2023/12/10 11:13:00;;;;;;;29.42;4.65;;;11.30;99.90;;;;;;5078416;28;20138;-61
2023/12/10 11:15:27;;;;;;;35.53;4.57;;;11.30;99.90;;;;;;5078128;28;20033;-61
2023/12/10 11:17:59;;;;;;;28.70;4.13;;;11.30;99.90;;;;;;5078055;28;20035;-61
2023/12/10 11:20:36;;;;;;;34.08;4.78;;;11.30;99.90;;;;;;5078273;28;20056;-61
2023/12/10 11:23:03;;;;;;;29.02;4.28;;;11.30;99.90;;;;;;5077965;28;20075;-61
2023/12/10 11:25:30;;;;;;;31.27;4.40;;;11.30;99.90;;;;;;5078046;28;20048;-62
2023/12/10 11:28:18;;;;;;;26.38;4.28;;;11.30;99.90;;;;;;5078023;28;20111;-61
2023/12/10 11:30:44;;;;;;;25.00;3.92;;;11.40;99.90;;;;;;5078133;28;20036;-60
2023/12/10 11:33:13;;;;;;;31.90;5.25;;;11.50;99.90;;;;;;5060098;28;20043;-61
2023/12/10 11:35:41;;;;;;;37.97;5.88;;;11.40;99.90;;;;;;5077630;28;20040;-61
2023/12/10 11:38:07;;;;;;;37.40;5.75;;;11.50;99.90;;;;;;5060406;28;20032;-62
2023/12/10 11:40:34;;;;;;;27.83;4.88;;;11.70;99.90;;;;;;5094021;28;20044;-61
2023/12/10 11:43:08;;;;;;;29.38;5.45;;;11.60;99.90;;;;;;5093844;28;20120;-62
2023/12/10 11:45:34;;;;;;;36.58;5.22;;;11.70;99.90;;;;;;5077706;28;20032;-60
2023/12/10 11:48:03;;;;;;;26.63;5.22;;;11.80;99.90;;;;;;5077613;28;20077;-62
2023/12/10 11:50:36;;;;;;;28.15;4.47;;;11.90;99.90;;;;;;5076841;28;20098;-62
2023/12/10 11:53:02;;;;;;;27.80;4.93;;;11.90;99.90;;;;;;5077478;28;20055;-60
2023/12/10 11:55:30;;;;;;;37.28;5.38;;;11.70;99.90;;;;;;5076688;28;20060;-61
2023/12/10 11:57:57;;;;;;;28.45;4.85;;;11.70;99.90;;;;;;5077235;28;20033;-61
2023/12/10 12:00:24;;;;;;;27.90;4.50;;;11.70;99.90;;;;;;5076626;28;20028;-57
2023/12/10 12:02:52;;;;;;;29.15;4.78;;;11.60;99.90;;;;;;5077221;28;20120;-61
2023/12/10 12:05:19;;;;;;;30.10;4.60;;;11.60;99.90;;;;;;5077226;28;20039;-60
2023/12/10 12:07:48;;;;;;;29.52;4.70;;;11.50;99.90;;;;;;5077282;28;20057;-62
2023/12/10 12:10:15;;;;;;;23.33;4.30;;;11.50;99.90;;;;;;5077210;28;20075;-60
2023/12/10 12:12:45;;;;;;;30.35;4.15;;;11.40;99.90;;;;;;5077161;28;20304;-62
2023/12/10 12:15:12;;;;;;;31.42;5.03;;;11.50;99.90;;;;;;5077090;28;20036;-61
2023/12/10 12:17:40;;;;;;;23.05;4.32;;;11.50;99.90;;;;;;5077085;28;20316;-62
2023/12/10 12:20:22;;;;;;;28.30;4.40;;;11.50;99.90;;;;;;5077119;28;20292;-61
2023/12/10 12:22:49;;;;;;;33.33;4.47;;;11.40;99.90;;;;;;5077016;28;20037;-61
2023/12/10 12:25:16;;;;;;;20.20;4.25;;;11.30;99.90;;;;;;5077059;28;20028;-59
2023/12/10 12:27:41;;;;;;;28.33;4.55;;;11.40;99.90;;;;;;5075906;28;20479;-62
2023/12/10 12:30:08;;;;;;;21.38;4.45;;;11.40;99.90;;;;;;5076870;28;20119;-62
2023/12/10 12:32:34;;;;;;;28.33;5.00;;;11.30;99.90;;;;;;5076718;28;20148;-62
2023/12/10 12:35:00;;;;;;;27.77;4.72;;;11.20;99.90;;;;;;5076801;28;20028;-61
2023/12/10 12:37:26;;;;;;;26.33;4.95;;;11.20;99.90;;;;;;5076737;28;20021;-61
2023/12/10 12:39:55;;;;;;;29.83;4.93;;;11.20;99.90;;;;;;5076784;28;20039;-61